createdAt,value
2022-10-30T00:01:05.168Z,16.60
2022-10-30T00:03:36.253Z,16.60
2022-10-30T00:06:07.498Z,16.60
2022-10-30T00:08:35.921Z,16.60
2022-10-30T00:11:08.459Z,16.60
2022-10-30T00:13:37.664Z,16.50
2022-10-30T00:16:09.022Z,16.60
2022-10-30T00:18:38.632Z,16.50
2022-10-30T00:21:10.001Z,16.50
2022-10-30T00:23:38.223Z,16.50
2022-10-30T00:26:07.636Z,16.50
2022-10-30T00:28:36.385Z,16.50
2022-10-30T00:31:05.753Z,16.50
2022-10-30T00:33:34.019Z,16.40
2022-10-30T00:36:02.686Z,16.30
2022-10-30T00:38:33.188Z,16.20
2022-10-30T00:41:01.380Z,16.10
2022-10-30T00:43:35.898Z,16.00
2022-10-30T00:46:19.356Z,15.90
2022-10-30T00:48:52.097Z,15.60
2022-10-30T00:51:20.553Z,15.30
2022-10-30T00:53:51.068Z,15.00
2022-10-30T00:56:21.504Z,14.90
2022-10-30T00:58:55.042Z,14.80
2022-10-30T01:01:27.072Z,14.70
2022-10-30T01:03:59.071Z,14.60
2022-10-30T01:06:29.335Z,14.60
2022-10-30T01:09:00.197Z,14.60
2022-10-30T01:11:28.714Z,14.60
2022-10-30T01:13:59.223Z,14.70
2022-10-30T01:16:51.094Z,14.70
2022-10-30T01:19:26.719Z,14.70
2022-10-30T01:22:12.434Z,14.70
2022-10-30T01:24:52.021Z,14.80
2022-10-30T01:27:33.903Z,14.70
2022-10-30T01:30:11.749Z,14.70
2022-10-30T01:32:50.408Z,14.70
2022-10-30T01:35:25.024Z,14.70
2022-10-30T01:37:59.354Z,14.70
2022-10-30T01:40:29.488Z,14.70
2022-10-30T01:42:58.788Z,14.70
2022-10-30T01:45:42.268Z,14.70
2022-10-30T01:48:32.766Z,14.50
2022-10-30T01:51:07.350Z,14.40
2022-10-30T01:53:47.181Z,14.40
2022-10-30T01:56:27.879Z,14.60
2022-10-30T01:59:04.309Z,14.70
2022-10-30T02:01:35.685Z,14.80
2022-10-30T02:04:05.143Z,14.80
2022-10-30T02:06:33.393Z,14.90
2022-10-30T02:09:01.504Z,14.90
2022-10-30T02:11:33.155Z,14.90
2022-10-30T02:14:04.105Z,15.00
2022-10-30T02:16:34.615Z,15.10
2022-10-30T02:19:03.442Z,15.10
2022-10-30T02:21:33.025Z,15.20
2022-10-30T02:24:01.165Z,15.30
2022-10-30T02:26:29.268Z,15.40
2022-10-30T02:28:57.512Z,15.40
2022-10-30T02:31:25.679Z,15.50
2022-10-30T02:33:53.948Z,15.50
2022-10-30T02:36:22.087Z,15.60
2022-10-30T02:38:51.633Z,15.60
2022-10-30T02:41:19.859Z,15.60
2022-10-30T02:43:51.099Z,15.60
2022-10-30T02:46:19.252Z,15.60
2022-10-30T02:48:47.374Z,15.60
2022-10-30T02:51:15.538Z,15.60
2022-10-30T02:53:43.754Z,15.50
2022-10-30T02:56:14.840Z,15.50
2022-10-30T02:58:43.441Z,15.50
2022-10-30T03:01:13.468Z,15.50
2022-10-30T03:03:42.122Z,15.30
2022-10-30T03:06:12.108Z,15.30
2022-10-30T03:08:40.198Z,15.30
2022-10-30T03:11:10.774Z,15.30
2022-10-30T03:13:41.722Z,15.40
2022-10-30T03:16:12.175Z,15.30
2022-10-30T03:18:40.497Z,15.40
2022-10-30T03:21:11.583Z,15.40
2022-10-30T03:23:39.884Z,15.40
2022-10-30T03:26:08.344Z,15.50
2022-10-30T03:28:36.576Z,15.50
2022-10-30T03:31:08.242Z,15.50
2022-10-30T03:33:37.260Z,15.50
2022-10-30T03:36:06.408Z,15.50
2022-10-30T03:38:34.730Z,15.50
2022-10-30T03:41:06.602Z,15.50
2022-10-30T03:43:36.274Z,15.50
2022-10-30T03:46:30.860Z,15.50
2022-10-30T03:48:59.015Z,15.50
2022-10-30T03:51:27.120Z,15.50
2022-10-30T03:53:55.312Z,15.50
2022-10-30T03:56:23.496Z,15.50
2022-10-30T03:58:52.445Z,15.40
2022-10-30T04:01:21.011Z,15.40
2022-10-30T04:03:52.836Z,15.40
2022-10-30T04:06:21.181Z,15.40
2022-10-30T04:08:52.494Z,15.40
2022-10-30T04:11:21.143Z,15.40
2022-10-30T04:13:49.425Z,15.40
2022-10-30T04:16:17.510Z,15.40
2022-10-30T04:18:45.630Z,15.40
2022-10-30T04:21:15.044Z,15.40
2022-10-30T04:23:43.105Z,15.30
2022-10-30T04:26:11.191Z,15.30
2022-10-30T04:28:39.192Z,15.30
2022-10-30T04:31:07.855Z,15.30
2022-10-30T04:33:35.899Z,15.20
2022-10-30T04:36:03.852Z,15.30
2022-10-30T04:38:33.208Z,15.30
2022-10-30T04:41:01.149Z,15.30
2022-10-30T04:43:29.272Z,15.30
2022-10-30T04:45:57.421Z,15.20
2022-10-30T04:48:25.626Z,15.20
2022-10-30T04:50:53.723Z,15.20
2022-10-30T04:53:22.018Z,15.20
2022-10-30T04:55:55.026Z,15.20
2022-10-30T04:58:23.066Z,15.20
2022-10-30T05:00:51.049Z,15.20
2022-10-30T05:03:21.573Z,15.20
2022-10-30T05:05:56.682Z,15.20
2022-10-30T05:08:25.405Z,15.20
2022-10-30T05:11:09.982Z,15.20
2022-10-30T05:13:38.174Z,15.20
2022-10-30T05:16:06.896Z,15.20
2022-10-30T05:18:35.667Z,15.20
2022-10-30T05:21:03.845Z,15.20
2022-10-30T05:23:32.084Z,15.10
2022-10-30T05:26:01.496Z,15.00
2022-10-30T05:28:31.146Z,14.80
2022-10-30T05:30:59.812Z,14.70
2022-10-30T05:33:31.393Z,14.70
2022-10-30T05:36:00.104Z,14.70
2022-10-30T05:38:28.535Z,14.80
2022-10-30T05:40:57.502Z,14.80
2022-10-30T05:43:25.956Z,14.80
2022-10-30T05:45:56.027Z,14.80
2022-10-30T05:48:24.203Z,14.90
2022-10-30T05:50:53.524Z,14.90
2022-10-30T05:53:25.025Z,14.90
2022-10-30T05:55:57.004Z,14.90
2022-10-30T05:58:26.118Z,14.90
2022-10-30T06:00:56.934Z,14.90
2022-10-30T06:03:25.216Z,14.90
2022-10-30T06:05:53.455Z,14.90
2022-10-30T06:08:21.842Z,14.90
2022-10-30T06:10:50.181Z,14.90
2022-10-30T06:13:18.305Z,14.90
2022-10-30T06:15:46.866Z,14.90
2022-10-30T06:18:16.363Z,14.90
2022-10-30T06:20:46.044Z,14.80
2022-10-30T06:23:14.375Z,14.90
2022-10-30T06:25:42.780Z,14.80
2022-10-30T06:28:13.796Z,14.90
2022-10-30T06:30:42.075Z,14.90
2022-10-30T06:33:11.316Z,15.00
2022-10-30T06:35:40.921Z,15.00
2022-10-30T06:38:12.164Z,15.00
2022-10-30T06:40:48.085Z,15.00
2022-10-30T06:43:18.899Z,15.00
2022-10-30T06:45:47.099Z,15.00
2022-10-30T06:48:15.195Z,15.10
2022-10-30T06:50:44.790Z,15.10
2022-10-30T06:53:12.891Z,15.00
2022-10-30T06:55:40.981Z,15.00
2022-10-30T06:58:09.088Z,15.00
2022-10-30T07:00:37.194Z,15.00
2022-10-30T07:03:07.881Z,15.00
2022-10-30T07:05:35.884Z,15.00
2022-10-30T07:08:05.614Z,15.10
2022-10-30T07:10:33.809Z,15.10
2022-10-30T07:13:02.332Z,15.10
2022-10-30T07:15:30.704Z,15.00
2022-10-30T07:18:00.793Z,15.00
2022-10-30T07:20:30.888Z,15.10
2022-10-30T07:22:58.955Z,15.10
2022-10-30T07:25:31.945Z,15.10
2022-10-30T07:28:02.287Z,15.10
2022-10-30T07:30:30.529Z,15.20
2022-10-30T07:33:00.975Z,15.20
2022-10-30T07:35:30.786Z,15.20
2022-10-30T07:38:04.272Z,15.30
2022-10-30T07:40:34.379Z,15.30
2022-10-30T07:43:04.368Z,15.30
2022-10-30T07:45:35.621Z,15.30
2022-10-30T07:48:03.945Z,15.30
2022-10-30T07:50:32.083Z,15.30
2022-10-30T07:53:00.577Z,15.30
2022-10-30T07:55:33.460Z,15.40
2022-10-30T08:01:31.399Z,15.50
2022-10-30T08:03:59.987Z,15.50
2022-10-30T08:06:29.365Z,15.50
2022-10-30T08:09:16.516Z,15.60
2022-10-30T08:11:48.512Z,15.60
2022-10-30T08:14:16.981Z,15.60
2022-10-30T08:16:45.600Z,15.70
2022-10-30T08:19:13.800Z,15.80
2022-10-30T08:21:42.093Z,15.80
2022-10-30T08:24:10.623Z,15.90
2022-10-30T08:26:38.813Z,16.00
2022-10-30T08:29:08.460Z,16.10
2022-10-30T08:31:36.795Z,16.20
2022-10-30T08:34:05.480Z,16.20
2022-10-30T08:36:37.907Z,16.40
2022-10-30T08:39:08.395Z,16.40
2022-10-30T08:41:36.644Z,16.50
2022-10-30T08:44:06.424Z,16.60
2022-10-30T08:46:38.192Z,16.70
2022-10-30T08:49:06.842Z,16.70
2022-10-30T08:51:36.525Z,16.80
2022-10-30T08:54:05.490Z,17.00
2022-10-30T08:56:33.820Z,17.00
2022-10-30T08:59:02.144Z,17.10
2022-10-30T09:01:30.310Z,17.20
2022-10-30T09:03:59.969Z,17.30
2022-10-30T09:06:29.394Z,17.40
2022-10-30T09:09:00.914Z,17.50
2022-10-30T09:11:29.438Z,17.60
2022-10-30T09:13:57.627Z,17.70
2022-10-30T09:16:25.823Z,17.80
2022-10-30T09:18:54.139Z,17.80
2022-10-30T09:21:23.785Z,17.90
2022-10-30T09:23:51.945Z,18.00
2022-10-30T09:26:21.114Z,18.00
2022-10-30T09:28:49.801Z,18.10
2022-10-30T09:31:18.926Z,18.10
2022-10-30T09:33:47.216Z,18.20
2022-10-30T09:36:18.056Z,18.30
2022-10-30T09:38:51.103Z,18.30
2022-10-30T09:41:38.380Z,18.40
2022-10-30T09:44:20.465Z,18.40
2022-10-30T09:47:02.293Z,18.50
2022-10-30T09:49:45.633Z,18.50
2022-10-30T09:52:26.942Z,18.60
2022-10-30T09:55:17.052Z,18.50
2022-10-30T09:57:51.864Z,18.50
2022-10-30T10:00:22.673Z,18.50
2022-10-30T10:03:00.355Z,18.50
2022-10-30T10:05:33.820Z,18.60
2022-10-30T10:08:06.297Z,18.60
2022-10-30T10:10:40.805Z,18.60
2022-10-30T10:13:28.550Z,18.60
2022-10-30T10:16:00.956Z,18.70
2022-10-30T10:18:34.430Z,18.70
2022-10-30T10:21:10.362Z,18.80
2022-10-30T10:23:47.707Z,18.80
2022-10-30T10:26:28.917Z,18.90
2022-10-30T10:29:20.981Z,18.90
2022-10-30T10:32:01.758Z,19.00
2022-10-30T10:34:52.743Z,19.00
2022-10-30T10:37:31.866Z,19.10
2022-10-30T10:40:17.494Z,19.10
2022-10-30T10:42:57.297Z,19.20
2022-10-30T10:45:34.030Z,19.30
2022-10-30T10:48:19.028Z,19.40
2022-10-30T10:50:50.901Z,19.50
2022-10-30T10:53:25.835Z,19.50
2022-10-30T10:55:58.396Z,19.60
2022-10-30T10:58:30.679Z,19.70
2022-10-30T11:00:59.952Z,19.70
2022-10-30T11:03:40.195Z,19.80
2022-10-30T11:06:21.184Z,19.80
2022-10-30T11:08:50.490Z,19.90
2022-10-30T11:11:18.646Z,20.00
2022-10-30T11:13:50.841Z,20.10
2022-10-30T11:16:28.669Z,20.10
2022-10-30T11:19:01.832Z,20.20
2022-10-30T11:21:34.053Z,20.30
2022-10-30T11:24:02.358Z,20.30
2022-10-30T12:46:22.967Z,20.80
2022-10-30T12:57:34.818Z,20.80
2022-10-30T13:00:07.952Z,20.80
2022-10-30T13:02:56.161Z,20.90
2022-10-30T13:05:34.408Z,20.90
2022-10-30T13:08:17.024Z,20.90
2022-10-30T13:10:51.033Z,21.00
2022-10-30T13:13:23.173Z,21.10
2022-10-30T13:15:54.204Z,21.10
2022-10-30T13:18:25.258Z,21.10
2022-10-30T13:21:18.141Z,21.20
2022-10-30T13:23:49.795Z,21.20
2022-10-30T13:26:25.149Z,21.30
2022-10-30T13:28:58.884Z,21.40
2022-10-30T13:31:36.293Z,21.40
2022-10-30T13:34:17.371Z,21.40
2022-10-30T13:36:51.895Z,21.30
2022-10-30T13:39:28.646Z,21.20
2022-10-30T13:42:11.591Z,21.10
2022-10-30T13:44:52.117Z,21.10
2022-10-30T13:47:32.238Z,21.00
2022-10-30T13:50:18.727Z,20.90
2022-10-30T13:52:53.951Z,20.80
2022-10-30T13:55:26.777Z,20.80
2022-10-30T13:58:03.028Z,20.80
2022-10-30T14:00:49.173Z,20.80
2022-10-30T14:03:29.935Z,20.80
2022-10-30T14:06:08.313Z,20.90
2022-10-30T14:08:42.284Z,20.80
2022-10-30T14:11:14.403Z,20.80
2022-10-30T14:13:54.678Z,20.80
2022-10-30T14:16:35.718Z,20.80
2022-10-30T14:19:05.320Z,20.90
2022-10-30T14:21:54.710Z,20.80
2022-10-30T14:24:24.549Z,20.80
2022-10-30T14:26:55.921Z,20.60
2022-10-30T14:29:48.940Z,20.60
2022-10-30T14:32:47.560Z,20.60
2022-10-30T14:35:34.569Z,20.40
2022-10-30T14:38:27.500Z,20.30
2022-10-30T14:41:12.873Z,20.30
2022-10-30T14:43:51.529Z,20.20
2022-10-30T14:46:26.627Z,20.10
2022-10-30T14:49:10.449Z,20.10
2022-10-30T14:51:43.411Z,20.10
2022-10-30T14:54:22.886Z,20.10
2022-10-30T14:56:52.744Z,20.00
2022-10-30T14:59:32.166Z,20.00
2022-10-30T15:02:19.778Z,20.00
2022-10-30T15:05:12.775Z,19.90
2022-10-30T15:07:45.063Z,19.90
2022-10-30T15:10:23.726Z,19.80
2022-10-30T15:13:17.072Z,19.80
2022-10-30T15:15:46.512Z,19.70
2022-10-30T15:18:19.175Z,19.70
2022-10-30T15:20:51.983Z,19.60
2022-10-30T15:23:24.295Z,19.60
2022-10-30T15:25:55.669Z,19.50
2022-10-30T15:28:27.568Z,19.50
2022-10-30T15:31:03.430Z,19.50
2022-10-30T15:33:32.945Z,19.40
2022-10-30T15:36:01.399Z,19.40
2022-10-30T15:38:29.513Z,19.30
2022-10-30T15:41:02.230Z,19.20
2022-10-30T15:43:35.309Z,19.10
2022-10-30T15:46:09.461Z,19.10
2022-10-30T15:48:41.248Z,19.00
2022-10-30T15:51:15.049Z,18.90
2022-10-30T15:53:47.636Z,18.80
2022-10-30T15:56:20.926Z,18.70
2022-10-30T15:58:54.314Z,18.70
2022-10-30T16:01:26.986Z,18.60
2022-10-30T16:03:55.650Z,18.50
2022-10-30T16:06:27.507Z,18.40
2022-10-30T16:08:55.907Z,18.40
2022-10-30T16:11:26.977Z,18.30
2022-10-30T16:13:55.196Z,18.30
2022-10-30T16:16:28.152Z,18.20
2022-10-30T16:19:00.603Z,18.10
2022-10-30T16:21:30.967Z,18.10
2022-10-30T16:24:01.673Z,18.10
2022-10-30T16:26:33.852Z,18.00
2022-10-30T16:29:09.849Z,18.00
2022-10-30T16:31:38.825Z,17.90
2022-10-30T16:34:12.330Z,17.80
2022-10-30T16:36:42.045Z,17.80
2022-10-30T16:39:15.161Z,17.70
2022-10-30T16:41:45.101Z,17.70
2022-10-30T16:44:20.162Z,17.60
2022-10-30T16:46:53.599Z,17.60
2022-10-30T16:49:24.280Z,17.50
2022-10-30T16:52:00.081Z,17.50
2022-10-30T16:54:32.239Z,17.50
2022-10-30T16:57:03.768Z,17.50
2022-10-30T16:59:38.340Z,17.40
2022-10-30T17:02:17.156Z,17.40
2022-10-30T17:04:52.478Z,17.30
2022-10-30T17:07:26.974Z,17.30
2022-10-30T17:09:58.557Z,17.20
2022-10-30T17:12:30.222Z,17.20
2022-10-30T17:15:12.888Z,17.20
2022-10-30T17:17:43.839Z,17.10
2022-10-30T17:20:30.996Z,17.00
2022-10-30T17:23:08.315Z,17.00
2022-10-30T17:25:38.391Z,17.00
2022-10-30T17:28:10.551Z,16.90
2022-10-30T17:30:43.230Z,16.90
2022-10-30T17:33:28.029Z,16.90
2022-10-30T17:35:56.119Z,16.90
2022-10-30T17:38:24.370Z,16.90
2022-10-30T17:40:52.564Z,16.80
2022-10-30T17:43:23.151Z,16.80
2022-10-30T17:45:51.474Z,16.70
2022-10-30T17:48:20.047Z,16.70
2022-10-30T17:50:48.116Z,16.70
2022-10-30T17:53:18.473Z,16.60
2022-10-30T17:55:51.677Z,16.60
2022-10-30T17:58:23.969Z,16.50
2022-10-30T18:00:52.844Z,16.50
2022-10-30T18:03:21.121Z,16.50
2022-10-30T18:05:50.079Z,16.50
2022-10-30T18:08:18.333Z,16.40
2022-10-30T18:10:46.395Z,16.40
2022-10-30T18:13:15.486Z,16.40
2022-10-30T18:15:47.224Z,16.40
2022-10-30T18:18:15.483Z,16.40
2022-10-30T18:20:43.643Z,16.40
2022-10-30T18:23:38.745Z,16.30
2022-10-30T18:26:07.787Z,16.30
2022-10-30T18:28:37.872Z,16.30
2022-10-30T18:31:07.703Z,16.20
2022-10-30T18:33:35.842Z,16.20
2022-10-30T18:36:03.869Z,16.20
2022-10-30T18:38:31.982Z,16.20
2022-10-30T18:41:00.031Z,16.10
2022-10-30T18:43:28.601Z,16.10
2022-10-30T18:45:56.897Z,16.10
2022-10-30T18:48:26.499Z,16.10
2022-10-30T18:50:54.808Z,16.10
2022-10-30T18:53:22.838Z,16.10
2022-10-30T18:55:51.338Z,15.90
2022-10-30T18:58:19.549Z,15.90
2022-10-30T19:01:13.208Z,15.90
2022-10-30T19:03:37.199Z,15.80
2022-10-30T19:06:05.405Z,15.80
2022-10-30T19:08:33.511Z,15.80
2022-10-30T19:11:01.573Z,15.80
2022-10-30T19:13:29.663Z,15.70
2022-10-30T19:16:00.612Z,15.60
2022-10-30T19:18:32.157Z,15.60
2022-10-30T19:21:08.027Z,15.60
2022-10-30T19:23:38.490Z,15.60
2022-10-30T19:26:06.804Z,15.50
2022-10-30T19:28:35.335Z,15.50
2022-10-30T19:31:03.467Z,15.50
2022-10-30T19:33:31.509Z,15.50
2022-10-30T19:36:02.260Z,15.50
2022-10-30T19:38:31.018Z,15.50
2022-10-30T19:40:59.228Z,15.40
2022-10-30T19:43:27.346Z,15.40
2022-10-30T19:45:56.873Z,15.40
2022-10-30T19:48:55.493Z,15.40
2022-10-30T19:51:15.503Z,15.40
2022-10-30T19:53:43.675Z,15.50
2022-10-30T19:56:12.698Z,15.40
2022-10-30T19:58:40.811Z,15.40
2022-10-30T20:01:08.935Z,15.30
2022-10-30T20:03:37.124Z,15.40
2022-10-30T20:06:05.488Z,15.30
2022-10-30T20:08:34.992Z,15.30
2022-10-30T20:11:03.052Z,15.30
2022-10-30T20:13:33.145Z,15.20
2022-10-30T20:16:04.732Z,15.20
2022-10-30T20:18:35.472Z,15.20
2022-10-30T20:21:05.535Z,15.20
2022-10-30T20:23:35.023Z,15.20
2022-10-30T20:26:05.708Z,15.20
2022-10-30T20:28:37.180Z,15.20
2022-10-30T20:31:06.123Z,15.10
2022-10-30T20:33:34.401Z,15.10
2022-10-30T20:36:02.518Z,15.10
2022-10-30T20:38:32.959Z,15.00
2022-10-30T20:41:04.319Z,15.00
2022-10-30T20:43:35.331Z,15.00
2022-10-30T20:46:04.998Z,15.00
2022-10-30T20:48:33.216Z,15.00
2022-10-30T20:51:02.522Z,15.10
2022-10-30T20:53:31.463Z,15.10
2022-10-30T20:55:59.627Z,15.10
2022-10-30T20:58:29.065Z,15.20
2022-10-30T21:00:58.164Z,15.20
2022-10-30T21:03:26.823Z,15.20
2022-10-30T21:05:57.137Z,15.10
2022-10-30T21:08:25.498Z,15.10
2022-10-30T21:10:53.684Z,15.10
2022-10-30T21:13:21.791Z,15.10
2022-10-30T21:15:51.471Z,15.10
2022-10-30T21:18:19.497Z,15.00
2022-10-30T21:20:47.580Z,15.00
2022-10-30T21:23:15.600Z,14.90
2022-10-30T21:25:43.614Z,14.80
2022-10-30T21:28:11.648Z,14.80
2022-10-30T21:30:39.768Z,14.70
2022-10-30T21:33:09.492Z,14.70
2022-10-30T21:35:37.622Z,14.60
2022-10-30T21:38:05.639Z,14.60
2022-10-30T21:40:34.236Z,14.50
2022-10-30T21:43:04.373Z,14.50
2022-10-30T21:45:32.965Z,14.50
2022-10-30T21:48:01.055Z,14.40
2022-10-30T21:50:30.498Z,14.30
2022-10-30T21:52:58.846Z,14.30
2022-10-30T21:55:27.141Z,14.30
2022-10-30T21:57:55.187Z,14.40
2022-10-30T22:00:23.339Z,14.40
2022-10-30T22:02:54.287Z,14.50
2022-10-30T22:05:22.390Z,14.50
2022-10-30T22:07:52.558Z,14.50
2022-10-30T22:10:21.708Z,14.50
2022-10-30T22:12:49.805Z,14.50
2022-10-30T22:15:17.950Z,14.40
2022-10-30T22:17:45.978Z,14.50
2022-10-30T22:20:13.961Z,14.40
2022-10-30T22:22:41.981Z,14.40
2022-10-30T22:25:11.412Z,14.40
2022-10-30T22:27:39.428Z,14.30
2022-10-30T22:30:08.630Z,14.30
2022-10-30T22:32:36.710Z,14.20
2022-10-30T22:35:04.881Z,14.30
2022-10-30T22:37:32.897Z,14.40
2022-10-30T22:40:00.943Z,14.30
2022-10-30T22:42:30.426Z,14.30
2022-10-30T22:44:58.415Z,14.40
2022-10-30T22:47:26.466Z,14.40
2022-10-30T22:49:54.592Z,14.30
2022-10-30T22:52:22.718Z,14.30
2022-10-30T22:54:50.748Z,14.30
2022-10-30T22:57:18.896Z,14.20
2022-10-30T22:59:48.381Z,14.20
2022-10-30T23:02:16.392Z,14.10
2022-10-30T23:04:44.419Z,14.10
2022-10-30T23:07:12.473Z,14.10
2022-10-30T23:09:40.596Z,14.10
2022-10-30T23:12:08.709Z,14.10
2022-10-30T23:14:37.019Z,14.10
2022-10-30T23:17:06.386Z,14.10
2022-10-30T23:19:34.402Z,14.10
2022-10-30T23:22:02.428Z,14.00
2022-10-30T23:24:30.581Z,14.00
2022-10-30T23:26:58.629Z,14.00
2022-10-30T23:29:26.687Z,14.00
2022-10-30T23:31:54.732Z,14.10
2022-10-30T23:34:24.142Z,14.00
2022-10-30T23:36:53.522Z,14.00
2022-10-30T23:39:23.286Z,13.90
2022-10-30T23:41:51.332Z,13.90
2022-10-30T23:44:19.468Z,13.90
2022-10-30T23:46:47.851Z,13.80
2022-10-30T23:49:15.964Z,13.80
2022-10-30T23:51:45.468Z,13.90
2022-10-30T23:54:13.468Z,13.90
2022-10-30T23:56:41.457Z,13.90
2022-10-30T23:59:10.659Z,13.90
